Time;durP1;ratioP1;P1;durP2;ratioP2;P2;SDS_P1;SDS_P2;PMS_P1;PMS_P2;Temp;Humidity;BMP_temperature;BMP_pressure;BME280_temperature;BME280_humidity;BME280_pressure;Samples;Min_cycle;Max_cycle;Signal;HPM_P1;HPM_P2
2022/09/26 00:00:00;;;;;;;7.30;2.45;;;12.30;1.00;;;;;;4981209;28;20039;-62
2022/09/26 00:02:28;;;;;;;6.88;2.22;;;11.80;1.00;;;;;;4984154;28;20049;-62
2022/09/26 00:04:53;;;;;;;5.82;2.00;;;12.20;1.00;;;;;;4976785;28;20035;-62
2022/09/26 00:07:19;;;;;;;6.38;2.10;;;11.70;1.00;;;;;;4979136;28;20042;-62
2022/09/26 00:09:45;;;;;;;5.28;1.90;;;12.30;1.00;;;;;;4967478;28;20512;-62
2022/09/26 00:12:10;;;;;;;6.25;1.70;;;12.20;1.00;;;;;;4977533;28;20035;-62
2022/09/26 00:14:36;;;;;;;7.93;2.00;;;11.90;1.00;;;;;;4978660;28;20407;-62
2022/09/26 00:17:01;;;;;;;8.68;2.08;;;12.20;1.00;;;;;;4971075;28;20041;-62
2022/09/26 00:19:29;;;;;;;6.80;1.75;;;12.40;1.00;;;;;;5039282;23;20222;-75
2022/09/26 00:21:55;;;;;;;6.13;2.40;;;12.00;1.00;;;;;;5028210;28;20031;-75
2022/09/26 00:24:20;;;;;;;4.88;1.92;;;12.80;1.00;;;;;;5029044;28;20044;-75
2022/09/26 00:26:46;;;;;;;7.00;1.83;;;12.50;1.00;;;;;;5006617;28;20116;-75
2022/09/26 00:29:12;;;;;;;7.13;1.90;;;12.50;1.00;;;;;;4995574;28;20033;-75
2022/09/26 00:31:43;;;;;;;6.95;1.70;;;12.10;1.00;;;;;;5031317;28;20383;-75
2022/09/26 00:34:14;;;;;;;7.38;1.58;;;12.40;1.00;;;;;;5029703;28;20091;-76
2022/09/26 00:36:40;;;;;;;6.03;1.70;;;;;;;;;;5013590;28;20034;-75
2022/09/26 00:39:08;;;;;;;6.97;1.88;;;12.60;1.00;;;;;;5004821;28;20037;-75
2022/09/26 00:41:34;;;;;;;10.60;2.20;;;12.50;1.00;;;;;;5023323;28;20117;-75
2022/09/26 00:43:59;;;;;;;6.85;2.40;;;12.30;1.00;;;;;;5003288;28;20456;-75
2022/09/26 00:46:34;;;;;;;7.45;1.70;;;12.70;1.00;;;;;;5013246;28;20446;-75
2022/09/26 00:49:21;;;;;;;4.97;1.70;;;12.70;1.00;;;;;;4991403;28;20045;-75
2022/09/26 00:52:15;;;;;;;5.80;1.50;;;12.30;1.00;;;;;;5004863;28;20128;-75
2022/09/26 00:54:44;;;;;;;5.30;1.33;;;12.50;1.00;;;;;;4978307;28;20536;-72
2022/09/26 00:57:14;;;;;;;5.07;1.50;;;12.70;1.00;;;;;;5009330;28;20044;-74
2022/09/26 00:59:45;;;;;;;6.25;1.45;;;12.60;1.00;;;;;;5025472;28;20042;-72
2022/09/26 01:02:11;;;;;;;5.90;1.33;;;12.50;1.00;;;;;;5012359;28;20505;-73
2022/09/26 01:04:39;;;;;;;5.13;1.30;;;12.80;1.00;;;;;;5012252;28;20049;-72
2022/09/26 01:07:10;;;;;;;5.07;1.30;;;12.70;1.00;;;;;;5004452;28;20501;-72
2022/09/26 01:09:38;;;;;;;4.40;1.33;;;12.80;1.00;;;;;;5010672;28;20045;-73
2022/09/26 01:12:07;;;;;;;5.95;1.58;;;12.30;1.00;;;;;;5024280;28;20067;-73
2022/09/26 01:14:34;;;;;;;4.90;1.88;;;12.90;1.00;;;;;;5004034;28;20040;-72
2022/09/26 01:16:59;;;;;;;9.85;1.80;;;13.50;1.00;;;;;;5020890;28;20030;-75
2022/09/26 01:19:40;;;;;;;6.25;1.63;;;12.40;1.00;;;;;;5004795;28;20038;-74
2022/09/26 01:22:14;;;;;;;7.45;1.50;;;13.80;1.00;;;;;;5010146;28;20128;-74
2022/09/26 01:25:15;;;;;;;5.93;1.38;;;12.10;1.00;;;;;;5010521;28;20045;-74
2022/09/26 01:27:47;;;;;;;7.45;2.55;;;12.30;1.00;;;;;;5024761;28;20049;-74
2022/09/26 01:30:25;;;;;;;5.07;1.73;;;12.40;1.00;;;;;;5001068;28;20056;-74
2022/09/26 01:33:09;;;;;;;6.43;1.88;;;12.50;1.00;;;;;;5030692;28;20049;-74
2022/09/26 01:36:01;;;;;;;5.83;1.50;;;12.30;1.00;;;;;;5022836;28;20056;-74
2022/09/26 01:38:29;;;;;;;5.38;1.40;;;;;;;;;;5016890;28;20042;-74
2022/09/26 01:41:15;;;;;;;5.15;1.50;;;12.40;1.00;;;;;;5012980;28;20068;-75
2022/09/26 01:44:08;;;;;;;8.35;1.70;;;12.30;1.00;;;;;;5002334;28;20041;-74
2022/09/26 01:46:46;;;;;;;5.65;1.77;;;12.80;1.00;;;;;;4986537;28;20064;-74
2022/09/26 01:49:19;;;;;;;9.00;2.10;;;12.20;1.00;;;;;;4999936;28;20040;-74
2022/09/26 01:51:51;;;;;;;5.95;1.70;;;12.50;1.00;;;;;;5011313;28;20045;-74
2022/09/26 01:54:22;;;;;;;5.70;1.98;;;12.20;1.00;;;;;;5026101;28;20045;-74
2022/09/26 01:56:50;;;;;;;6.70;2.15;;;12.40;1.00;;;;;;5022642;28;20069;-74
2022/09/26 01:59:27;;;;;;;7.75;2.00;;;12.30;1.00;;;;;;5028772;28;20679;-74
2022/09/26 02:02:00;;;;;;;7.70;2.53;;;12.50;1.00;;;;;;5004462;28;20176;-74
2022/09/26 02:04:33;;;;;;;7.40;2.15;;;12.30;1.00;;;;;;5028741;28;20045;-76
2022/09/26 02:07:20;;;;;;;7.68;2.80;;;11.90;1.00;;;;;;5003538;28;20141;-76
2022/09/26 02:10:04;;;;;;;6.38;2.20;;;11.80;1.00;;;;;;5008976;28;20118;-76
2022/09/26 02:12:35;;;;;;;4.70;2.17;;;12.10;1.00;;;;;;5000790;28;20042;-76
2022/09/26 02:15:06;;;;;;;7.35;2.50;;;12.30;1.00;;;;;;5018476;28;20026;-77
2022/09/26 02:17:42;;;;;;;8.95;2.75;;;12.20;1.00;;;;;;5003551;28;20407;-77
2022/09/26 02:20:33;;;;;;;9.27;2.53;;;12.10;1.00;;;;;;4994394;28;20029;-78
2022/09/26 02:23:02;;;;;;;6.18;2.88;;;12.60;1.00;;;;;;5023150;28;20069;-75
2022/09/26 02:25:29;;;;;;;7.95;3.10;;;12.30;1.00;;;;;;4999504;28;20045;-75
2022/09/26 02:27:56;;;;;;;8.00;2.80;;;11.80;1.00;;;;;;5023486;28;20045;-78
2022/09/26 02:30:22;;;;;;;7.13;2.47;;;12.00;1.00;;;;;;5011828;28;20037;-75
2022/09/26 02:32:47;;;;;;;7.20;2.95;;;12.00;1.00;;;;;;5003274;28;20446;-75
2022/09/26 02:35:53;;;;;;;9.30;2.60;;;12.40;1.00;;;;;;5023193;28;20037;-75
2022/09/26 02:38:01;;;;;;;8.02;2.80;;;12.20;1.00;;;;;;5024870;28;20129;-75
2022/09/26 02:40:39;;;;;;;6.18;2.75;;;12.30;1.00;;;;;;5015849;28;20037;-75
2022/09/26 02:43:28;;;;;;;7.60;2.75;;;12.40;1.00;;;;;;5000506;28;20116;-75
2022/09/26 02:46:09;;;;;;;5.85;2.60;;;12.20;1.00;;;;;;5019651;28;20454;-74
2022/09/26 02:48:54;;;;;;;9.50;3.55;;;;;;;;;;5025971;28;20037;-75
2022/09/26 02:51:35;;;;;;;7.65;2.78;;;12.60;1.00;;;;;;5027889;28;20037;-75
2022/09/26 02:54:22;;;;;;;5.57;2.25;;;12.20;1.00;;;;;;5021559;28;20038;-75
2022/09/26 02:57:19;;;;;;;7.47;2.88;;;12.50;1.00;;;;;;5014707;28;20199;-74
2022/09/26 02:59:56;;;;;;;6.80;2.70;;;12.10;1.00;;;;;;5008589;28;20049;-74
2022/09/26 03:02:42;;;;;;;7.03;3.13;;;12.10;1.00;;;;;;5011592;28;20038;-75
2022/09/26 03:05:19;;;;;;;8.15;2.85;;;12.40;1.00;;;;;;5025892;28;20403;-75
2022/09/26 03:08:09;;;;;;;6.43;3.17;;;12.10;1.00;;;;;;5005166;28;20030;-75
2022/09/26 03:10:37;;;;;;;8.38;2.53;;;12.00;1.00;;;;;;5012116;28;20599;-75
2022/09/26 03:13:07;;;;;;;10.40;3.75;;;12.40;1.00;;;;;;5003354;28;20049;-74
2022/09/26 03:15:36;;;;;;;10.38;3.25;;;12.30;1.00;;;;;;5032378;28;20046;-75
2022/09/26 03:18:07;;;;;;;5.80;2.53;;;13.00;1.00;;;;;;5001431;28;20041;-75
2022/09/26 03:20:33;;;;;;;6.95;2.90;;;12.50;1.00;;;;;;5009459;28;20045;-75
2022/09/26 03:22:58;;;;;;;5.55;2.60;;;12.20;1.00;;;;;;5011120;28;20040;-74
2022/09/26 03:25:26;;;;;;;9.90;3.17;;;12.10;1.00;;;;;;5029779;28;20044;-74
2022/09/26 03:27:53;;;;;;;5.97;2.45;;;12.30;1.00;;;;;;4993339;28;20034;-74
2022/09/26 03:30:21;;;;;;;8.35;3.00;;;12.70;1.00;;;;;;5014310;28;20037;-74
2022/09/26 03:32:47;;;;;;;7.97;3.20;;;12.40;1.00;;;;;;4995447;28;20124;-74
2022/09/26 03:35:13;;;;;;;6.15;3.20;;;12.60;1.00;;;;;;5003266;28;22369;-74
2022/09/26 03:37:38;;;;;;;8.20;4.07;;;12.80;1.00;;;;;;4988489;28;20049;-74
2022/09/26 03:40:07;;;;;;;8.23;3.63;;;12.70;1.00;;;;;;5026860;28;20034;-74
2022/09/26 03:42:33;;;;;;;8.23;4.07;;;12.30;1.00;;;;;;5010085;28;20037;-74
2022/09/26 03:44:59;;;;;;;10.77;5.07;;;13.00;1.00;;;;;;5008890;28;20488;-74
2022/09/26 03:47:25;;;;;;;7.20;3.88;;;12.60;1.00;;;;;;5014900;28;20042;-73
2022/09/26 03:49:51;;;;;;;8.68;4.07;;;12.50;1.00;;;;;;5010606;28;20037;-74
2022/09/26 03:52:17;;;;;;;9.43;3.45;;;12.80;1.00;;;;;;5030904;28;20506;-75
2022/09/26 03:54:43;;;;;;;8.10;3.55;;;12.60;1.00;;;;;;5022804;28;20047;-75
2022/09/26 03:57:11;;;;;;;8.52;3.60;;;13.70;1.00;;;;;;5010317;28;20048;-74
2022/09/26 03:59:37;;;;;;;9.63;3.42;;;12.50;1.00;;;;;;5012500;28;20042;-75
2022/09/26 04:02:03;;;;;;;9.50;3.67;;;12.30;1.00;;;;;;5031879;28;20040;-74
2022/09/26 04:04:28;;;;;;;8.32;3.00;;;12.60;1.00;;;;;;5014348;28;20037;-74
2022/09/26 04:06:54;;;;;;;9.63;2.97;;;12.30;1.00;;;;;;4998114;28;20116;-74
2022/09/26 04:09:20;;;;;;;6.85;2.90;;;12.60;1.00;;;;;;5031850;28;20092;-74
2022/09/26 04:11:45;;;;;;;6.63;2.78;;;12.70;1.00;;;;;;5008748;28;20053;-74
2022/09/26 04:14:11;;;;;;;8.70;3.35;;;13.00;1.00;;;;;;5007334;28;20066;-75
2022/09/26 04:16:37;;;;;;;6.55;3.50;;;12.90;1.00;;;;;;5010966;28;20037;-74
2022/09/26 04:19:05;;;;;;;7.05;3.22;;;12.60;1.00;;;;;;5002100;28;20113;-74
2022/09/26 04:21:34;;;;;;;6.95;2.88;;;12.40;1.00;;;;;;5000610;28;20157;-74
2022/09/26 04:24:00;;;;;;;7.40;3.15;;;12.60;1.00;;;;;;5012105;28;20034;-74
2022/09/26 04:26:26;;;;;;;8.65;3.20;;;12.40;1.00;;;;;;5009345;28;20136;-74
2022/09/26 04:28:54;;;;;;;9.02;3.50;;;12.40;1.00;;;;;;5005061;28;20037;-74
2022/09/26 04:31:21;;;;;;;7.75;3.85;;;12.20;1.00;;;;;;5021362;28;20063;-73
2022/09/26 04:33:47;;;;;;;9.57;3.83;;;12.40;1.00;;;;;;5013040;28;20124;-73
2022/09/26 04:36:13;;;;;;;7.00;3.55;;;12.20;1.00;;;;;;4998027;28;20040;-73
2022/09/26 04:38:40;;;;;;;6.88;3.10;;;12.20;1.00;;;;;;5005217;28;20120;-74
2022/09/26 04:41:14;;;;;;;7.82;3.20;;;12.40;1.00;;;;;;5011955;28;20391;-73
2022/09/26 04:43:40;;;;;;;8.68;4.60;;;12.20;1.00;;;;;;5011841;28;20071;-73
2022/09/26 04:46:26;;;;;;;8.75;3.67;;;12.20;1.00;;;;;;5006710;28;20080;-72
2022/09/26 04:48:54;;;;;;;7.18;3.40;;;12.40;1.00;;;;;;5024290;28;20120;-73
2022/09/26 04:51:21;;;;;;;7.70;3.30;;;12.30;1.00;;;;;;5005703;28;20117;-73
2022/09/26 04:53:47;;;;;;;9.60;3.70;;;12.60;1.00;;;;;;5013691;28;20053;-73
2022/09/26 04:56:14;;;;;;;10.18;4.07;;;11.70;1.00;;;;;;5007343;28;20038;-73
2022/09/26 04:58:41;;;;;;;8.35;3.88;;;11.80;1.00;;;;;;5025031;28;20042;-73
2022/09/26 05:01:16;;;;;;;7.55;3.83;;;12.40;1.00;;;;;;5005544;28;20030;-73
2022/09/26 05:03:43;;;;;;;10.63;4.28;;;12.10;1.00;;;;;;5005712;28;20075;-73
2022/09/26 05:06:09;;;;;;;8.75;3.80;;;11.90;1.00;;;;;;4996009;28;20033;-73
2022/09/26 05:08:40;;;;;;;8.40;3.95;;;11.80;1.00;;;;;;5009537;28;20042;-76
2022/09/26 05:11:06;;;;;;;10.57;4.95;;;11.60;1.00;;;;;;5032088;28;20507;-75
2022/09/26 05:13:32;;;;;;;10.32;4.82;;;12.10;1.00;;;;;;5025456;28;20034;-74
2022/09/26 05:16:00;;;;;;;8.85;4.60;;;11.80;1.00;;;;;;5027564;28;20034;-73
2022/09/26 05:18:27;;;;;;;11.00;4.95;;;12.30;1.00;;;;;;5005195;28;20116;-74
2022/09/26 05:20:53;;;;;;;11.73;4.97;;;12.40;1.00;;;;;;5008919;28;20423;-74
2022/09/26 05:26:34;;;;;;;11.70;4.78;;;12.80;1.00;;;;;;5022983;28;20049;-74
2022/09/26 05:29:01;;;;;;;10.05;4.40;;;12.80;1.00;;;;;;4993206;28;20056;-74
2022/09/26 05:31:28;;;;;;;10.00;4.50;;;12.10;1.00;;;;;;5022006;28;20050;-73
2022/09/26 05:33:56;;;;;;;10.18;4.88;;;11.80;1.00;;;;;;5012564;28;20046;-74
2022/09/26 05:36:23;;;;;;;11.60;4.95;;;12.20;1.00;;;;;;5001271;28;20601;-76
2022/09/26 05:38:49;;;;;;;9.52;5.10;;;12.00;1.00;;;;;;4995697;28;20046;-76
2022/09/26 05:41:15;;;;;;;6.80;4.20;;;12.30;1.00;;;;;;5020737;28;20030;-77
2022/09/26 05:43:41;;;;;;;9.93;4.95;;;12.00;1.00;;;;;;5022826;28;20048;-73
2022/09/26 05:46:09;;;;;;;8.48;3.90;;;11.70;1.00;;;;;;5029989;28;20041;-73
2022/09/26 05:48:36;;;;;;;8.82;3.10;;;11.90;1.00;;;;;;5011928;28;20563;-73
2022/09/26 05:51:20;;;;;;;7.57;3.80;;;12.00;1.00;;;;;;5008230;28;20080;-74
2022/09/26 05:53:48;;;;;;;7.15;3.53;;;12.00;1.00;;;;;;5027057;28;20474;-73
2022/09/26 05:56:15;;;;;;;9.60;3.80;;;11.80;1.00;;;;;;4997758;28;20045;-74
2022/09/26 05:58:41;;;;;;;8.93;3.35;;;11.90;1.00;;;;;;4991066;28;20196;-73
2022/09/26 06:01:09;;;;;;;9.05;3.40;;;12.10;1.00;;;;;;4990027;28;20136;-73
2022/09/26 06:03:36;;;;;;;8.50;3.55;;;12.30;1.00;;;;;;4991797;28;20045;-74
2022/09/26 06:06:14;;;;;;;7.90;3.83;;;11.60;1.00;;;;;;5028625;28;20053;-74
2022/09/26 06:08:41;;;;;;;9.57;3.92;;;12.40;1.00;;;;;;5010284;28;20035;-74
2022/09/26 06:11:18;;;;;;;8.57;3.45;;;12.00;1.00;;;;;;5020650;28;20131;-76
2022/09/26 06:13:46;;;;;;;13.43;3.78;;;;;;;;;;5002371;28;20107;-73
2022/09/26 06:16:17;;;;;;;11.02;3.70;;;;;;;;;;4930510;28;20364;-73
2022/09/26 06:18:44;;;;;;;9.40;3.50;;;;;;;;;;4944939;28;20044;-74
2022/09/26 06:21:12;;;;;;;8.40;3.88;;;;;;;;;;4981556;22;20555;-62
2022/09/26 06:26:21;;;;;;;11.43;3.97;;;12.60;1.00;;;;;;4922054;28;20563;-64
2022/09/26 06:28:48;;;;;;;7.55;3.47;;;12.40;1.00;;;;;;4970524;28;20409;-64
2022/09/26 06:31:17;;;;;;;9.95;3.50;;;;;;;;;;5008799;28;20030;-64
2022/09/26 06:33:43;;;;;;;11.65;3.47;;;11.80;1.00;;;;;;4992346;28;20038;-64
2022/09/26 06:36:10;;;;;;;7.38;3.72;;;;;;;;;;4963099;28;20502;-64
2022/09/26 06:41:06;;;;;;;7.68;3.55;;;12.50;1.00;;;;;;4973205;28;20050;-64
2022/09/26 06:43:32;;;;;;;7.65;3.60;;;12.60;1.00;;;;;;4992718;28;20380;-64
2022/09/26 06:53:34;;;;;;;10.23;3.80;;;12.80;1.00;;;;;;4982040;28;20042;-63
2022/09/26 06:56:01;;;;;;;7.68;3.30;;;12.40;1.00;;;;;;4983028;28;20050;-63
2022/09/26 07:00:57;;;;;;;10.25;3.83;;;12.20;1.00;;;;;;4950859;28;20105;-63
2022/09/26 07:03:25;;;;;;;10.95;3.97;;;12.50;1.00;;;;;;4983977;28;20519;-64
2022/09/26 07:05:55;;;;;;;7.82;3.85;;;12.20;1.00;;;;;;4977381;28;20505;-64
2022/09/26 07:08:21;;;;;;;8.10;3.58;;;12.10;1.00;;;;;;4966982;28;20125;-64
2022/09/26 07:10:47;;;;;;;9.95;3.63;;;12.70;1.00;;;;;;4988889;28;20397;-63
2022/09/26 07:13:15;;;;;;;5.72;2.97;;;12.50;1.00;;;;;;4990430;28;20042;-64
2022/09/26 07:15:44;;;;;;;8.93;4.10;;;12.40;1.00;;;;;;4970454;28;20117;-64
2022/09/26 07:20:39;;;;;;;9.05;2.80;;;12.50;1.00;;;;;;4926258;28;20081;-63
2022/09/26 07:23:08;;;;;;;9.18;3.38;;;12.90;1.00;;;;;;5003694;28;20516;-63
2022/09/26 07:25:38;;;;;;;9.40;3.17;;;12.40;1.00;;;;;;4952412;28;20221;-62
2022/09/26 07:28:09;;;;;;;7.47;3.05;;;;;;;;;;4908312;28;20276;-61
2022/09/26 07:30:35;;;;;;;7.05;3.30;;;12.50;1.00;;;;;;4975337;28;20045;-62
2022/09/26 07:33:03;;;;;;;7.13;3.25;;;12.20;1.00;;;;;;5012767;28;20048;-63
2022/09/26 07:35:34;;;;;;;8.95;2.72;;;12.30;1.00;;;;;;5012624;28;20496;-63
2022/09/26 07:38:00;;;;;;;9.98;3.33;;;12.30;1.00;;;;;;4996033;28;20037;-62
2022/09/26 07:40:27;;;;;;;7.03;2.85;;;12.50;1.00;;;;;;4998795;28;20041;-63
2022/09/26 07:42:57;;;;;;;8.07;2.70;;;12.20;1.00;;;;;;5006939;28;20064;-62
2022/09/26 07:50:59;;;;;;;9.38;3.83;;;12.70;1.00;;;;;;4998554;28;20042;-63
2022/09/26 07:53:26;;;;;;;6.00;2.92;;;12.50;1.00;;;;;;5013741;28;20065;-63
2022/09/26 07:56:04;;;;;;;7.85;3.50;;;12.40;1.00;;;;;;4992300;28;20113;-63
2022/09/26 07:58:36;;;;;;;7.68;2.50;;;;;;;;;;4996395;28;20034;-63
2022/09/26 08:01:02;;;;;;;8.07;2.83;;;13.00;1.00;;;;;;4966793;28;20038;-62
2022/09/26 08:03:28;;;;;;;6.15;2.58;;;12.60;1.00;;;;;;4959842;28;20045;-63
2022/09/26 08:06:03;;;;;;;8.10;2.67;;;12.70;1.00;;;;;;4996856;28;20050;-64
2022/09/26 08:08:29;;;;;;;6.40;2.42;;;13.20;1.00;;;;;;5011034;28;20041;-63
2022/09/26 08:10:57;;;;;;;7.88;3.38;;;12.70;1.00;;;;;;5012420;28;20507;-64
2022/09/26 08:13:25;;;;;;;6.95;2.72;;;13.30;1.00;;;;;;5005243;28;20419;-63
2022/09/26 08:15:52;;;;;;;8.00;2.40;;;13.00;1.00;;;;;;5020021;28;20450;-63
2022/09/26 08:18:18;;;;;;;7.93;3.08;;;;;;;;;;4950013;28;20364;-61
2022/09/26 08:20:46;;;;;;;8.85;2.90;;;;;;;;;;4894086;28;20050;-62
2022/09/26 08:23:16;;;;;;;5.80;2.65;;;13.20;1.00;;;;;;5008966;28;20096;-63
2022/09/26 08:25:43;;;;;;;6.55;2.50;;;12.90;1.00;;;;;;5005271;28;20108;-64
2022/09/26 08:28:13;;;;;;;17.63;5.18;;;;;;;;;;4975378;28;20293;-62
2022/09/26 08:30:40;;;;;;;5.95;2.35;;;;;;;;;;4923177;28;20402;-62
2022/09/26 08:33:07;;;;;;;8.50;2.72;;;;;;;;;;4922113;28;20241;-63
2022/09/26 08:35:40;;;;;;;8.52;2.40;;;13.30;1.00;;;;;;5016299;28;20037;-63
2022/09/26 08:38:07;;;;;;;9.70;3.22;;;;;;;;;;4973595;28;20478;-62
2022/09/26 08:40:44;;;;;;;9.75;3.13;;;13.20;1.00;;;;;;4954098;28;20099;-63
2022/09/26 08:43:32;;;;;;;9.07;3.05;;;12.70;1.00;;;;;;5013860;28;20034;-64
2022/09/26 08:48:52;;;;;;;8.85;2.97;;;;;;;;;;4979699;28;20698;-62
2022/09/26 08:51:32;;;;;;;6.50;2.83;;;12.70;1.00;;;;;;4971795;28;20049;-64
2022/09/26 08:54:24;;;;;;;7.72;3.35;;;12.50;1.00;;;;;;4996527;28;20042;-64
2022/09/26 08:56:56;;;;;;;9.07;3.42;;;12.10;1.00;;;;;;5010461;28;20038;-64
2022/09/26 08:59:35;;;;;;;7.10;4.00;;;12.00;1.00;;;;;;5010938;28;20512;-63
2022/09/26 09:02:09;;;;;;;10.50;4.85;;;12.00;1.00;;;;;;5009481;28;20042;-64
2022/09/26 09:07:21;;;;;;;10.13;4.82;;;12.40;1.00;;;;;;5028085;28;20060;-63
2022/09/26 09:09:48;;;;;;;7.90;4.53;;;12.00;1.00;;;;;;5014514;28;20037;-63
2022/09/26 09:12:25;;;;;;;8.27;3.92;;;;;;;;;;5028529;28;20275;-62
2022/09/26 09:15:30;;;;;;;8.25;4.72;;;11.90;1.00;;;;;;4942390;28;20385;-65
2022/09/26 09:18:05;;;;;;;9.82;5.22;;;11.90;1.00;;;;;;4982338;28;20488;-64
2022/09/26 09:20:51;;;;;;;8.38;5.10;;;11.70;1.00;;;;;;5024748;28;20115;-63
2022/09/26 09:23:20;;;;;;;9.63;4.70;;;;;;;;;;5010392;28;20034;-64
2022/09/26 09:26:02;;;;;;;8.82;5.22;;;12.00;1.00;;;;;;4952606;28;20361;-64
2022/09/26 09:29:03;;;;;;;7.75;3.95;;;11.90;1.00;;;;;;5028048;28;20042;-63
2022/09/26 09:34:01;;;;;;;15.68;5.45;;;;;;;;;;4980109;28;20046;-64
2022/09/26 09:36:39;;;;;;;8.73;5.05;;;11.80;1.00;;;;;;4988004;28;20069;-64
2022/09/26 09:39:08;;;;;;;10.88;6.47;;;11.90;1.00;;;;;;4992023;28;20550;-63
2022/09/26 09:41:57;;;;;;;10.82;6.35;;;11.80;1.00;;;;;;4991890;28;20039;-64
2022/09/26 09:44:41;;;;;;;11.15;7.05;;;;;;;;;;4952610;28;20486;-65
2022/09/26 09:47:14;;;;;;;10.45;6.40;;;;;;;;;;4887050;28;20038;-61
2022/09/26 09:52:37;;;;;;;10.25;6.30;;;11.70;1.00;;;;;;4981111;28;20046;-65
2022/09/26 09:55:04;;;;;;;12.02;5.72;;;;;;;;;;4984217;28;20492;-61
2022/09/26 09:57:33;;;;;;;11.93;7.30;;;;;;;;;;4914312;28;20574;-61
2022/09/26 10:00:09;;;;;;;12.60;6.45;;;;;;;;;;4914140;28;20418;-64
2022/09/26 10:05:16;;;;;;;9.95;5.82;;;11.70;1.00;;;;;;4989779;28;20054;-63
2022/09/26 10:07:47;;;;;;;14.13;6.93;;;11.50;1.00;;;;;;4984699;28;20046;-62
2022/09/26 10:10:19;;;;;;;9.68;6.53;;;11.30;1.00;;;;;;4986642;28;20030;-63
2022/09/26 10:12:50;;;;;;;10.73;6.35;;;11.90;1.00;;;;;;4988972;28;20042;-63
2022/09/26 10:15:18;;;;;;;12.75;8.00;;;;;;;;;;4988997;28;20093;-62
2022/09/26 10:18:06;;;;;;;9.55;6.85;;;11.70;1.00;;;;;;4984323;28;20050;-63
2022/09/26 10:20:52;;;;;;;13.15;8.10;;;11.70;1.00;;;;;;4991849;28;20092;-63
2022/09/26 10:23:45;;;;;;;12.00;7.55;;;11.30;1.00;;;;;;4984675;28;20038;-64
2022/09/26 10:28:48;;;;;;;11.88;7.75;;;;;;;;;;4897364;28;20359;-65
2022/09/26 10:33:44;;;;;;;14.95;8.68;;;11.70;1.00;;;;;;4999553;28;20041;-64
2022/09/26 10:36:11;;;;;;;12.85;9.70;;;;;;;;;;4987153;28;20038;-65
2022/09/26 10:41:57;;;;;;;11.65;7.57;;;11.50;1.00;;;;;;4975660;28;20488;-63
2022/09/26 10:44:26;;;;;;;11.48;7.45;;;12.00;1.00;;;;;;4977524;28;20043;-63
2022/09/26 10:46:56;;;;;;;12.90;9.23;;;11.70;1.00;;;;;;4988307;28;20057;-63
2022/09/26 10:49:24;;;;;;;13.48;9.00;;;;;;;;;;4982414;28;20078;-64
2022/09/26 10:52:00;;;;;;;12.27;8.77;;;11.80;1.00;;;;;;4975832;28;20079;-64
2022/09/26 10:54:40;;;;;;;13.07;8.48;;;12.30;1.00;;;;;;4980003;28;20504;-64
2022/09/26 10:57:08;;;;;;;13.13;8.98;;;11.80;1.00;;;;;;4986869;28;20463;-64
2022/09/26 10:59:38;;;;;;;14.35;9.45;;;12.00;1.00;;;;;;4973222;28;20385;-65
2022/09/26 11:02:05;;;;;;;12.30;7.93;;;;;;;;;;4984826;28;20035;-64
2022/09/26 11:07:25;;;;;;;12.65;9.50;;;12.40;1.00;;;;;;4992371;28;20073;-64
2022/09/26 11:09:52;;;;;;;12.85;8.95;;;12.00;1.00;;;;;;4988584;28;20051;-64
2022/09/26 11:12:26;;;;;;;10.68;8.23;;;12.20;1.00;;;;;;4974404;28;20536;-64
2022/09/26 11:15:03;;;;;;;12.35;8.93;;;12.00;1.00;;;;;;4990182;28;20390;-65
2022/09/26 11:17:42;;;;;;;10.55;8.05;;;11.60;1.00;;;;;;4972398;28;20043;-65
2022/09/26 11:20:19;;;;;;;10.15;7.45;;;12.30;1.00;;;;;;4984885;28;20134;-65
2022/09/26 11:23:06;;;;;;;10.80;7.20;;;12.00;1.00;;;;;;4980968;28;20077;-64
2022/09/26 11:25:48;;;;;;;10.98;7.22;;;12.50;1.00;;;;;;4985197;28;20909;-64
2022/09/26 11:28:22;;;;;;;10.15;7.45;;;12.10;1.00;;;;;;4986799;28;20045;-64
2022/09/26 11:30:53;;;;;;;12.10;8.52;;;12.60;1.00;;;;;;4990010;28;20082;-64
2022/09/26 11:33:20;;;;;;;10.57;7.53;;;12.00;1.00;;;;;;4985172;28;20046;-64
2022/09/26 11:36:00;;;;;;;9.93;7.40;;;12.30;1.00;;;;;;4975911;28;20054;-64
2022/09/26 11:38:39;;;;;;;11.50;7.53;;;12.90;1.00;;;;;;4977533;28;20104;-64
2022/09/26 11:41:35;;;;;;;10.48;6.60;;;12.70;1.00;;;;;;4983159;28;20038;-64
2022/09/26 11:44:22;;;;;;;8.90;6.78;;;12.90;1.00;;;;;;4974364;28;20057;-65
2022/09/26 11:47:06;;;;;;;9.48;7.20;;;12.70;1.00;;;;;;4988030;28;20104;-65
2022/09/26 11:49:58;;;;;;;13.80;7.45;;;12.30;1.00;;;;;;4988292;28;20112;-64
2022/09/26 11:52:34;;;;;;;11.10;7.03;;;12.60;1.00;;;;;;4948184;28;20043;-64
2022/09/26 11:55:17;;;;;;;9.65;6.75;;;13.00;1.00;;;;;;4979679;28;20358;-64
2022/09/26 11:58:14;;;;;;;12.98;7.32;;;13.40;1.00;;;;;;4984383;28;20038;-64
2022/09/26 12:00:58;;;;;;;12.73;7.72;;;12.60;1.00;;;;;;4960642;28;20054;-64
2022/09/26 12:03:32;;;;;;;9.30;6.30;;;12.90;1.00;;;;;;4979850;28;20042;-64
2022/09/26 12:06:01;;;;;;;9.32;6.63;;;13.30;1.00;;;;;;4983093;28;20053;-64
2022/09/26 12:08:46;;;;;;;10.02;5.93;;;13.50;1.00;;;;;;4983758;28;20065;-64
2022/09/26 12:11:33;;;;;;;12.02;6.78;;;13.80;1.00;;;;;;4980725;28;20051;-65
2022/09/26 12:14:11;;;;;;;8.55;5.20;;;13.80;1.00;;;;;;4984597;28;20514;-65
2022/09/26 12:16:50;;;;;;;9.52;5.20;;;13.70;1.00;;;;;;4984478;28;20054;-64
2022/09/26 12:19:22;;;;;;;8.32;4.93;;;13.80;1.00;;;;;;4981239;28;20039;-65
2022/09/26 12:22:27;;;;;;;8.65;5.03;;;14.30;1.00;;;;;;5012145;22;20057;-61
2022/09/26 12:25:06;;;;;;;8.77;5.13;;;13.80;1.00;;;;;;5009049;28;20045;-61
2022/09/26 12:28:01;;;;;;;12.45;6.18;;;13.20;1.00;;;;;;5004111;28;20104;-60
2022/09/26 12:31:07;;;;;;;9.45;5.97;;;13.80;1.00;;;;;;4998814;28;20074;-59
2022/09/26 12:33:39;;;;;;;11.93;6.63;;;13.20;1.00;;;;;;4994316;28;20050;-60
2022/09/26 12:36:46;;;;;;;9.95;6.32;;;13.90;1.00;;;;;;4992867;28;20044;-60
2022/09/26 12:39:39;;;;;;;11.82;5.28;;;13.60;1.00;;;;;;5006778;28;20460;-61
2022/09/26 12:42:32;;;;;;;10.07;5.45;;;13.60;1.00;;;;;;4991502;28;20063;-60
2022/09/26 12:45:01;;;;;;;8.38;5.32;;;13.70;1.00;;;;;;4979722;28;20042;-60
2022/09/26 12:47:36;;;;;;;7.80;4.63;;;13.30;1.00;;;;;;4992942;28;20129;-60
2022/09/26 12:50:29;;;;;;;10.10;4.90;;;13.90;1.00;;;;;;4957202;28;20038;-61
2022/09/26 12:53:18;;;;;;;8.85;4.47;;;13.40;1.00;;;;;;4993503;28;20099;-61
2022/09/26 12:56:08;;;;;;;8.10;3.78;;;13.70;1.00;;;;;;4973310;28;20062;-60
2022/09/26 12:58:56;;;;;;;9.30;4.40;;;14.00;1.00;;;;;;4944277;28;20355;-59
2022/09/26 13:04:29;;;;;;;10.73;3.50;;;;;;;;;;5013338;22;21534;-79
2022/09/26 13:07:08;;;;;;;12.40;3.83;;;14.20;1.00;;;;;;5009323;28;20414;-80
2022/09/26 13:09:56;;;;;;;6.70;1.95;;;;;;;;;;5024487;28;20041;-79
2022/09/26 13:13:02;;;;;;;7.20;2.72;;;15.10;1.00;;;;;;4968290;28;20041;-79
2022/09/26 13:16:03;;;;;;;7.28;1.85;;;14.90;1.00;;;;;;5025249;28;20395;-79
2022/09/26 13:18:45;;;;;;;6.65;1.90;;;;;;;;;;4940925;28;20053;-79
2022/09/26 13:21:34;;;;;;;4.85;1.50;;;14.60;1.00;;;;;;4974135;28;20029;-80
2022/09/26 13:24:08;;;;;;;6.93;1.60;;;15.00;1.00;;;;;;5017237;28;20120;-80
2022/09/26 13:26:45;;;;;;;6.82;1.60;;;16.10;1.00;;;;;;5019105;28;20087;-80
2022/09/26 13:29:22;;;;;;;9.15;2.03;;;16.70;1.00;;;;;;4999779;28;20097;-80
2022/09/26 13:32:14;;;;;;;9.10;1.95;;;17.20;1.00;;;;;;4960337;28;20518;-79
2022/09/26 13:34:49;;;;;;;6.10;1.80;;;17.20;1.00;;;;;;4952366;28;20107;-80
2022/09/26 13:37:33;;;;;;;7.95;2.20;;;17.60;1.00;;;;;;5022286;28;20112;-80
2022/09/26 13:40:27;;;;;;;9.77;2.20;;;17.20;1.00;;;;;;4997222;28;20046;-79
2022/09/26 13:43:19;;;;;;;9.68;2.70;;;17.80;99.90;;;;;;5016617;28;20037;-80
2022/09/26 13:46:29;;;;;;;7.57;2.25;;;18.40;99.90;;;;;;4978117;28;20434;-78
2022/09/26 13:49:23;;;;;;;10.80;2.38;;;19.10;99.90;;;;;;4949986;28;20322;-79
2022/09/26 13:52:17;;;;;;;9.43;2.03;;;19.50;99.90;;;;;;4994002;28;20042;-80
2022/09/26 13:55:18;;;;;;;10.55;2.40;;;20.00;99.90;;;;;;5022052;28;20093;-80
2022/09/26 13:58:20;;;;;;;9.43;2.72;;;19.90;99.90;;;;;;4978573;28;20224;-80
2022/09/26 14:00:53;;;;;;;8.88;2.00;;;21.40;99.90;;;;;;5016600;28;20230;-81
2022/09/26 14:03:20;;;;;;;8.93;2.47;;;21.40;99.90;;;;;;5010993;28;20052;-81
2022/09/26 14:05:49;;;;;;;11.02;2.90;;;21.20;99.90;;;;;;5003426;28;20041;-82
2022/09/26 14:11:48;;;;;;;12.02;2.65;;;21.80;99.90;;;;;;5017339;28;20049;-82
2022/09/26 14:14:17;;;;;;;12.75;2.55;;;22.90;99.90;;;;;;4999509;28;20046;-82
2022/09/26 14:16:49;;;;;;;13.45;3.60;;;23.20;99.90;;;;;;5006073;28;20029;-82
2022/09/26 14:19:47;;;;;;;12.43;2.40;;;22.40;99.90;;;;;;5043300;28;20116;-82
2022/09/26 14:22:19;;;;;;;13.57;2.80;;;21.70;99.90;;;;;;5017522;28;20065;-81
2022/09/26 14:24:47;;;;;;;12.68;2.92;;;18.80;99.90;;;;;;5025962;28;20034;-79
2022/09/26 14:27:40;;;;;;;10.10;2.50;;;15.70;99.90;;;;;;5008489;28;20400;-76
2022/09/26 14:30:27;;;;;;;8.98;2.90;;;15.30;1.00;;;;;;5009552;28;20461;-77
2022/09/26 14:33:09;;;;;;;9.43;2.35;;;15.10;1.00;;;;;;5012680;28;20426;-78
2022/09/26 14:35:39;;;;;;;12.23;2.10;;;14.70;1.00;;;;;;5015926;28;20492;-79